Time;durP1;ratioP1;P1;durP2;ratioP2;P2;SDS_P1;SDS_P2;PMS_P1;PMS_P2;Temp;Humidity;BMP_temperature;BMP_pressure;BME280_temperature;BME280_humidity;BME280_pressure;Samples;Min_cycle;Max_cycle;Signal;HPM_P1;HPM_P2
2021/12/26 00:00:31;;;;;;;7.53;4.72;;;5.20;56.60;;;;;;5000973;28;20045;-54
2021/12/26 00:02:59;;;;;;;9.73;4.60;;;5.20;56.60;;;;;;5000525;28;20084;-55
2021/12/26 00:05:27;;;;;;;5.95;4.40;;;5.20;56.60;;;;;;5001106;28;20505;-54
2021/12/26 00:07:53;;;;;;;6.35;4.40;;;5.30;56.60;;;;;;4999363;28;20029;-55
2021/12/26 00:10:22;;;;;;;7.43;4.93;;;5.20;56.60;;;;;;5000273;28;20037;-55
2021/12/26 00:12:49;;;;;;;6.95;4.30;;;5.20;56.60;;;;;;5001335;28;20478;-56
2021/12/26 00:15:15;;;;;;;8.77;4.70;;;5.30;56.60;;;;;;4999648;28;20049;-57
2021/12/26 00:17:42;;;;;;;7.10;4.75;;;5.20;56.50;;;;;;4997513;28;20029;-53
2021/12/26 00:20:11;;;;;;;6.85;5.05;;;5.30;56.50;;;;;;5001665;28;20580;-54
2021/12/26 00:22:38;;;;;;;7.32;5.10;;;5.20;56.40;;;;;;5002406;28;20022;-53
2021/12/26 00:25:07;;;;;;;6.88;4.80;;;5.30;56.50;;;;;;4997964;28;20029;-55
2021/12/26 00:27:34;;;;;;;8.35;4.95;;;5.20;56.40;;;;;;4998903;28;20025;-55
2021/12/26 00:30:00;;;;;;;8.18;4.85;;;5.20;56.50;;;;;;5000767;28;20527;-52
2021/12/26 00:32:27;;;;;;;8.90;5.15;;;5.20;56.50;;;;;;4997480;28;20382;-55
2021/12/26 00:34:53;;;;;;;8.10;5.00;;;5.20;56.50;;;;;;4998334;28;20554;-56
2021/12/26 00:37:20;;;;;;;6.63;4.93;;;5.20;56.40;;;;;;4999359;28;20053;-52
2021/12/26 00:39:46;;;;;;;9.32;5.60;;;5.20;56.40;;;;;;4997717;28;20045;-50
2021/12/26 00:42:13;;;;;;;6.60;4.88;;;5.20;56.30;;;;;;5000957;28;20037;-54
2021/12/26 00:44:40;;;;;;;6.85;5.20;;;5.20;56.30;;;;;;4982322;28;20482;-54
2021/12/26 00:47:12;;;;;;;7.88;5.50;;;5.20;56.30;;;;;;4996736;28;20026;-54
2021/12/26 00:49:39;;;;;;;8.38;5.10;;;5.20;56.30;;;;;;4998796;28;20026;-54
2021/12/26 00:52:06;;;;;;;7.78;5.18;;;5.20;56.30;;;;;;5001609;28;20034;-54
2021/12/26 00:54:33;;;;;;;7.20;4.82;;;5.20;56.40;;;;;;4999658;28;20033;-55
2021/12/26 00:56:59;;;;;;;7.47;5.40;;;5.20;56.40;;;;;;4999374;28;20041;-55
2021/12/26 00:59:27;;;;;;;8.20;5.43;;;5.20;56.40;;;;;;4980573;28;20034;-54
2021/12/26 01:01:54;;;;;;;6.50;5.10;;;5.20;56.40;;;;;;4998638;28;20030;-54
2021/12/26 01:04:22;;;;;;;7.90;5.35;;;5.20;56.30;;;;;;5001429;28;20034;-52
2021/12/26 01:06:48;;;;;;;10.30;5.28;;;5.20;56.30;;;;;;5000573;28;20390;-55
2021/12/26 01:09:21;;;;;;;8.15;5.53;;;5.20;56.30;;;;;;4994787;28;20045;-54
2021/12/26 01:11:52;;;;;;;8.13;5.03;;;5.20;56.30;;;;;;4998546;28;20038;-55
2021/12/26 01:14:25;;;;;;;7.68;5.05;;;5.20;56.30;;;;;;4998898;28;20038;-54
2021/12/26 01:17:02;;;;;;;7.90;5.32;;;5.20;56.40;;;;;;4998343;28;20386;-54
2021/12/26 01:19:36;;;;;;;7.35;4.95;;;5.20;56.30;;;;;;4997018;28;20402;-53
2021/12/26 01:22:02;;;;;;;7.97;5.65;;;5.20;56.30;;;;;;4980885;28;20030;-54
2021/12/26 01:24:28;;;;;;;7.35;5.38;;;5.20;56.30;;;;;;4997393;28;20038;-56
2021/12/26 01:26:54;;;;;;;12.25;5.93;;;5.20;56.30;;;;;;5000159;28;20869;-54
2021/12/26 01:29:21;;;;;;;11.13;6.38;;;5.20;56.30;;;;;;4977666;28;20061;-53
2021/12/26 01:31:47;;;;;;;10.27;6.30;;;5.20;56.30;;;;;;4996288;28;20033;-55
2021/12/26 01:34:13;;;;;;;9.55;5.90;;;5.20;56.30;;;;;;5000028;28;20053;-54
2021/12/26 01:36:39;;;;;;;11.70;7.03;;;5.20;56.30;;;;;;4999798;28;20470;-53
2021/12/26 01:39:08;;;;;;;10.38;6.35;;;5.20;56.20;;;;;;4998381;28;20033;-52
2021/12/26 01:41:39;;;;;;;10.80;7.00;;;5.20;56.20;;;;;;5000915;28;20042;-54
2021/12/26 01:44:10;;;;;;;11.02;6.90;;;5.10;56.20;;;;;;5003734;28;20046;-55
2021/12/26 01:46:37;;;;;;;10.00;6.85;;;5.20;56.20;;;;;;5000901;28;20044;-54
2021/12/26 01:49:15;;;;;;;12.77;7.28;;;5.10;56.20;;;;;;4982001;28;20030;-55
2021/12/26 01:51:43;;;;;;;12.73;6.95;;;5.10;56.10;;;;;;5002069;28;20049;-55
2021/12/26 01:54:13;;;;;;;11.40;6.53;;;5.10;56.20;;;;;;5003169;28;20049;-57
2021/12/26 01:56:41;;;;;;;9.55;6.72;;;5.10;56.70;;;;;;5002936;28;20042;-56
2021/12/26 01:59:10;;;;;;;9.57;6.93;;;5.10;56.20;;;;;;4982310;28;20034;-56
2021/12/26 02:01:36;;;;;;;9.98;6.40;;;5.10;56.20;;;;;;5003318;28;20390;-55
2021/12/26 02:04:03;;;;;;;9.93;6.90;;;5.10;56.30;;;;;;5003823;28;20041;-55
2021/12/26 02:06:30;;;;;;;11.60;7.07;;;5.10;56.30;;;;;;5002692;28;20076;-55
2021/12/26 02:08:56;;;;;;;10.57;6.75;;;5.10;56.30;;;;;;4999029;28;20037;-54
2021/12/26 02:11:22;;;;;;;10.57;6.95;;;5.10;56.40;;;;;;5002950;28;20037;-54
2021/12/26 02:13:49;;;;;;;10.65;7.45;;;5.10;56.50;;;;;;5004487;28;20030;-53
2021/12/26 02:16:15;;;;;;;11.00;7.28;;;5.10;56.50;;;;;;5001029;28;20029;-54
2021/12/26 02:18:42;;;;;;;11.20;7.25;;;5.10;56.50;;;;;;5000066;28;20386;-53
2021/12/26 02:29:01;;;;;;;11.30;7.13;;;5.10;56.40;;;;;;4998687;28;20184;-53
2021/12/26 02:31:28;;;;;;;9.50;6.93;;;5.10;56.40;;;;;;5000493;28;20042;-55
2021/12/26 02:33:54;;;;;;;12.43;7.57;;;5.10;56.40;;;;;;5003182;28;20033;-54
2021/12/26 02:36:20;;;;;;;12.60;7.70;;;5.10;56.40;;;;;;5002813;28;20030;-55
2021/12/26 02:38:48;;;;;;;11.20;7.65;;;5.10;56.40;;;;;;4994792;28;20450;-51
2021/12/26 02:41:14;;;;;;;11.68;7.30;;;5.10;56.40;;;;;;5001261;28;20041;-55
2021/12/26 02:43:40;;;;;;;11.27;7.60;;;5.10;56.50;;;;;;5002142;28;20038;-52
2021/12/26 02:46:07;;;;;;;12.48;7.97;;;5.10;56.40;;;;;;4982145;28;20056;-54
2021/12/26 02:48:34;;;;;;;13.25;8.00;;;5.10;56.40;;;;;;4999825;28;20044;-54
2021/12/26 02:51:02;;;;;;;11.90;7.63;;;5.10;56.40;;;;;;5001922;28;20391;-55
2021/12/26 02:53:28;;;;;;;11.18;7.57;;;5.10;56.40;;;;;;5002362;28;20033;-55
2021/12/26 02:55:57;;;;;;;10.60;7.63;;;5.10;56.40;;;;;;5002086;28;20524;-53
2021/12/26 02:58:24;;;;;;;10.95;7.57;;;5.10;56.40;;;;;;4998880;28;20034;-55
2021/12/26 03:01:02;;;;;;;10.57;7.47;;;5.10;56.30;;;;;;4997985;28;20033;-54
2021/12/26 03:03:28;;;;;;;11.90;8.13;;;5.10;56.40;;;;;;5002248;28;20475;-56
2021/12/26 03:06:06;;;;;;;12.55;7.75;;;5.10;56.30;;;;;;5002672;28;20409;-51
2021/12/26 03:08:32;;;;;;;11.15;7.88;;;5.10;56.20;;;;;;4999320;28;20045;-55
2021/12/26 03:10:59;;;;;;;11.27;7.45;;;5.10;56.20;;;;;;5000715;28;20044;-52
2021/12/26 03:13:26;;;;;;;11.55;7.30;;;5.10;56.20;;;;;;5001690;28;20038;-55
2021/12/26 03:15:52;;;;;;;13.20;8.45;;;5.10;56.20;;;;;;4981463;28;20514;-51
2021/12/26 03:18:19;;;;;;;11.27;7.47;;;5.00;56.20;;;;;;4997345;28;20033;-55
2021/12/26 03:20:49;;;;;;;10.65;7.32;;;5.10;56.20;;;;;;5001301;28;20026;-55
2021/12/26 03:23:19;;;;;;;12.88;8.10;;;5.00;56.20;;;;;;5001088;28;20022;-54
2021/12/26 03:25:45;;;;;;;11.55;7.35;;;5.00;56.10;;;;;;5002599;28;20487;-54
2021/12/26 03:28:12;;;;;;;11.85;7.70;;;5.00;56.10;;;;;;4999775;28;20688;-55
2021/12/26 03:30:39;;;;;;;12.07;7.90;;;5.00;56.10;;;;;;4998579;28;20042;-57
2021/12/26 03:33:07;;;;;;;14.38;8.25;;;5.00;56.00;;;;;;5000493;28;20430;-54
2021/12/26 03:35:34;;;;;;;12.30;7.88;;;5.00;56.00;;;;;;5002993;28;20022;-56
2021/12/26 03:38:03;;;;;;;14.18;8.88;;;5.00;56.00;;;;;;5000011;28;20026;-55
2021/12/26 03:40:29;;;;;;;12.27;8.25;;;5.00;56.00;;;;;;4999963;28;20029;-57
2021/12/26 03:42:56;;;;;;;15.27;8.98;;;5.00;56.00;;;;;;5001783;28;20027;-54
2021/12/26 03:45:22;;;;;;;13.80;8.23;;;5.00;56.00;;;;;;4999422;28;20509;-56
2021/12/26 03:47:50;;;;;;;13.73;8.13;;;5.00;56.10;;;;;;4997479;28;20026;-55
2021/12/26 03:50:19;;;;;;;14.23;8.65;;;5.00;56.20;;;;;;4998124;28;20037;-55
2021/12/26 03:52:54;;;;;;;14.10;8.82;;;4.90;56.10;;;;;;4999844;28;20037;-56
2021/12/26 03:55:20;;;;;;;13.32;9.05;;;5.00;56.10;;;;;;4998386;28;20418;-57
2021/12/26 03:57:47;;;;;;;14.13;8.82;;;5.00;56.20;;;;;;4998794;28;20072;-55
2021/12/26 04:00:16;;;;;;;13.68;8.57;;;5.00;56.20;;;;;;5000057;28;20030;-54
2021/12/26 04:02:43;;;;;;;14.38;9.25;;;4.90;56.10;;;;;;4998507;28;20041;-55
2021/12/26 04:05:11;;;;;;;13.93;8.13;;;4.90;56.10;;;;;;5001390;28;20492;-55
2021/12/26 04:07:38;;;;;;;13.77;9.10;;;4.90;56.10;;;;;;4997382;28;20030;-55
2021/12/26 04:10:06;;;;;;;16.02;9.02;;;4.90;56.20;;;;;;5000570;28;20530;-56
2021/12/26 04:12:36;;;;;;;12.63;8.63;;;4.90;56.20;;;;;;5000488;28;20053;-55
2021/12/26 04:15:08;;;;;;;13.27;9.27;;;4.90;56.20;;;;;;5000931;28;20049;-57
2021/12/26 04:17:35;;;;;;;13.38;8.80;;;4.90;56.20;;;;;;4997515;28;20037;-57
2021/12/26 04:20:03;;;;;;;15.50;9.57;;;4.90;56.20;;;;;;4998349;28;20036;-55
2021/12/26 04:22:29;;;;;;;13.82;9.27;;;4.90;56.20;;;;;;4997879;28;20484;-55
2021/12/26 04:24:55;;;;;;;14.90;9.73;;;4.90;56.30;;;;;;5001289;28;20030;-54
2021/12/26 04:27:24;;;;;;;15.38;9.50;;;4.90;56.30;;;;;;4998721;28;20038;-57
2021/12/26 04:29:53;;;;;;;14.63;9.32;;;4.90;56.30;;;;;;4996066;28;20448;-57
2021/12/26 04:32:20;;;;;;;15.05;9.65;;;4.90;56.40;;;;;;4995775;28;20057;-55
2021/12/26 04:34:47;;;;;;;15.65;9.73;;;4.90;56.40;;;;;;5000843;28;20505;-54
2021/12/26 04:37:13;;;;;;;16.23;9.05;;;4.90;56.40;;;;;;4995054;28;20033;-55
2021/12/26 04:39:40;;;;;;;14.60;9.15;;;4.90;56.40;;;;;;4999109;28;20064;-56
2021/12/26 04:42:06;;;;;;;15.45;9.65;;;4.90;56.40;;;;;;4999726;28;20042;-55
2021/12/26 04:44:33;;;;;;;15.45;8.75;;;4.90;56.30;;;;;;5001440;28;20040;-55
2021/12/26 04:46:59;;;;;;;14.82;9.55;;;4.90;56.30;;;;;;4997082;28;20390;-57
2021/12/26 04:49:25;;;;;;;14.15;8.65;;;4.90;56.30;;;;;;4997094;28;20041;-57
2021/12/26 04:51:51;;;;;;;15.43;9.13;;;4.90;56.30;;;;;;4998689;28;20489;-55
2021/12/26 04:54:18;;;;;;;14.27;9.32;;;4.90;56.20;;;;;;5000247;28;20501;-57
2021/12/26 04:56:44;;;;;;;15.55;10.18;;;4.90;56.30;;;;;;4999231;28;20052;-54
2021/12/26 04:59:11;;;;;;;17.08;9.63;;;4.90;56.30;;;;;;4996812;28;20037;-55
2021/12/26 05:01:39;;;;;;;16.17;10.13;;;4.90;56.20;;;;;;4995710;28;20081;-56
2021/12/26 05:04:06;;;;;;;16.08;9.95;;;4.90;56.30;;;;;;5000183;28;20028;-57
2021/12/26 05:06:32;;;;;;;16.15;10.65;;;4.90;56.30;;;;;;4996242;28;20038;-55
2021/12/26 05:08:58;;;;;;;14.80;9.70;;;4.80;56.30;;;;;;4997156;28;20025;-55
2021/12/26 05:11:24;;;;;;;18.65;10.05;;;4.80;56.30;;;;;;5000266;28;20040;-57
2021/12/26 05:13:51;;;;;;;20.15;10.27;;;4.80;56.30;;;;;;4977700;28;20042;-55
2021/12/26 05:16:17;;;;;;;14.48;9.40;;;4.80;56.40;;;;;;4992157;28;20318;-55
2021/12/26 05:18:43;;;;;;;17.35;11.13;;;4.80;56.40;;;;;;4994142;28;20053;-57
2021/12/26 05:21:09;;;;;;;15.07;9.68;;;4.90;56.50;;;;;;4995714;28;20079;-57
2021/12/26 05:23:35;;;;;;;16.95;10.52;;;4.90;56.50;;;;;;4999194;28;20453;-55
2021/12/26 05:26:02;;;;;;;15.43;9.60;;;4.90;56.50;;;;;;5000423;28;20056;-57
2021/12/26 05:28:28;;;;;;;14.90;9.98;;;4.80;56.40;;;;;;5004052;28;20033;-57
2021/12/26 05:30:54;;;;;;;15.88;10.40;;;4.90;56.50;;;;;;5002509;28;20022;-55
2021/12/26 05:33:21;;;;;;;15.73;10.40;;;4.80;56.50;;;;;;5001967;28;20026;-55
2021/12/26 05:35:47;;;;;;;16.10;10.20;;;4.80;56.40;;;;;;5001768;28;20482;-58
2021/12/26 05:38:13;;;;;;;17.45;10.85;;;4.80;56.50;;;;;;5000814;28;20049;-54
2021/12/26 05:40:40;;;;;;;17.25;11.48;;;4.90;56.60;;;;;;5000357;28;20946;-55
2021/12/26 05:43:06;;;;;;;19.13;10.88;;;4.80;56.50;;;;;;5002642;28;20497;-54
2021/12/26 05:45:32;;;;;;;16.80;10.38;;;4.80;56.60;;;;;;5002739;28;20449;-57
2021/12/26 05:47:59;;;;;;;17.10;10.55;;;4.80;56.60;;;;;;4998754;28;20044;-54
2021/12/26 05:50:25;;;;;;;16.83;10.75;;;4.80;56.70;;;;;;4965382;28;20034;-55
2021/12/26 05:52:52;;;;;;;14.65;10.07;;;4.80;56.60;;;;;;4985537;28;20041;-55
2021/12/26 05:55:18;;;;;;;18.17;10.57;;;4.80;56.50;;;;;;5001863;28;20038;-54
2021/12/26 05:57:45;;;;;;;18.42;10.85;;;4.80;56.60;;;;;;4997092;28;20351;-54
2021/12/26 06:00:15;;;;;;;18.17;10.10;;;4.80;56.60;;;;;;5001347;28;20044;-55
2021/12/26 06:02:42;;;;;;;17.88;10.57;;;4.80;56.60;;;;;;5001742;28;20493;-55
2021/12/26 06:05:08;;;;;;;17.05;10.82;;;4.80;56.60;;;;;;4981539;28;20634;-54
2021/12/26 06:07:36;;;;;;;16.13;10.40;;;4.80;56.50;;;;;;4999965;28;20033;-57
2021/12/26 06:10:04;;;;;;;19.27;10.48;;;4.80;57.10;;;;;;5000716;28;20038;-55
2021/12/26 06:12:31;;;;;;;18.70;10.80;;;4.80;56.60;;;;;;5001837;28;20497;-57
2021/12/26 06:14:57;;;;;;;19.55;11.27;;;4.80;56.70;;;;;;4999345;28;20022;-54
2021/12/26 06:17:23;;;;;;;18.42;11.05;;;4.90;56.70;;;;;;4998039;28;20022;-55
2021/12/26 06:19:49;;;;;;;16.75;10.88;;;4.80;56.70;;;;;;4982928;28;20533;-58
2021/12/26 06:22:16;;;;;;;18.35;10.82;;;4.90;56.70;;;;;;5001940;28;20550;-55
2021/12/26 06:24:42;;;;;;;63.88;27.63;;;4.90;56.70;;;;;;4999738;28;20251;-55
2021/12/26 06:27:09;;;;;;;64.60;28.50;;;4.80;56.70;;;;;;5002380;28;20406;-55
2021/12/26 06:29:35;;;;;;;22.67;13.27;;;4.90;56.80;;;;;;5004052;28;20483;-56
2021/12/26 06:32:01;;;;;;;20.08;11.85;;;4.80;56.70;;;;;;5000285;28;20030;-55
2021/12/26 06:34:28;;;;;;;21.67;11.85;;;4.90;56.70;;;;;;5001268;28;20595;-57
2021/12/26 06:36:54;;;;;;;16.52;11.52;;;4.80;56.70;;;;;;4999519;28;20030;-55
2021/12/26 06:39:20;;;;;;;17.73;11.02;;;4.90;56.70;;;;;;5002373;28;20029;-55
2021/12/26 06:41:46;;;;;;;18.15;11.20;;;4.90;56.70;;;;;;5002899;28;20604;-55
2021/12/26 06:44:12;;;;;;;16.35;10.90;;;4.90;56.70;;;;;;5000164;28;20034;-57
2021/12/26 06:46:40;;;;;;;17.58;11.25;;;4.90;56.80;;;;;;4999754;28;20045;-56
2021/12/26 06:49:06;;;;;;;27.92;14.98;;;4.90;56.80;;;;;;5000402;28;20478;-55
2021/12/26 06:51:32;;;;;;;22.63;13.25;;;4.90;56.80;;;;;;5001563;28;20029;-55
2021/12/26 06:53:58;;;;;;;22.45;12.52;;;4.90;56.80;;;;;;5001259;28;20033;-53
2021/12/26 06:56:25;;;;;;;17.98;11.70;;;4.90;56.80;;;;;;4999098;28;20049;-56
2021/12/26 06:58:51;;;;;;;18.35;12.23;;;4.90;56.80;;;;;;5001246;28;20048;-55
2021/12/26 07:01:17;;;;;;;17.58;11.07;;;4.90;56.80;;;;;;4998383;28;20509;-55
2021/12/26 07:03:43;;;;;;;15.75;10.55;;;4.90;56.80;;;;;;4974958;28;20038;-57
2021/12/26 07:06:10;;;;;;;23.15;12.02;;;4.90;56.80;;;;;;4999245;28;20053;-57
2021/12/26 07:08:36;;;;;;;18.67;12.48;;;4.90;56.80;;;;;;4998189;28;20368;-58
2021/12/26 07:11:03;;;;;;;18.52;11.95;;;4.90;56.80;;;;;;5000308;28;20057;-54
2021/12/26 07:13:29;;;;;;;23.10;12.02;;;4.90;56.80;;;;;;5000352;28;20478;-55
2021/12/26 07:15:55;;;;;;;18.40;11.77;;;4.90;56.90;;;;;;4999452;28;20022;-54
2021/12/26 07:18:21;;;;;;;18.88;11.57;;;4.90;56.90;;;;;;5000639;28;20053;-57
2021/12/26 07:20:48;;;;;;;19.88;11.65;;;4.90;56.90;;;;;;5001767;28;20033;-56
2021/12/26 07:23:14;;;;;;;19.25;11.38;;;4.90;56.90;;;;;;5000064;28;20045;-57
2021/12/26 07:25:40;;;;;;;15.35;10.35;;;4.90;56.90;;;;;;4996837;28;20339;-55
2021/12/26 07:28:06;;;;;;;16.45;10.35;;;4.90;56.90;;;;;;5001816;28;20398;-55
2021/12/26 07:30:33;;;;;;;17.83;11.48;;;4.90;57.00;;;;;;5000737;28;20025;-57
2021/12/26 07:32:59;;;;;;;16.35;10.63;;;4.90;56.90;;;;;;4999482;28;20045;-55
2021/12/26 07:35:25;;;;;;;19.08;10.88;;;4.90;56.90;;;;;;5001176;28;20026;-57
2021/12/26 07:37:53;;;;;;;17.83;11.48;;;5.00;57.00;;;;;;4998721;28;20022;-56
2021/12/26 07:40:19;;;;;;;17.15;10.52;;;5.00;57.00;;;;;;5000681;28;20038;-55
2021/12/26 07:42:46;;;;;;;18.13;11.25;;;4.90;57.00;;;;;;4980657;28;20038;-57
2021/12/26 07:45:12;;;;;;;18.13;11.18;;;5.00;57.00;;;;;;4999163;28;20042;-57
2021/12/26 07:47:40;;;;;;;19.02;10.90;;;4.90;56.90;;;;;;4979763;28;20030;-57
2021/12/26 07:50:07;;;;;;;14.95;10.25;;;4.90;57.00;;;;;;4993145;28;20034;-57
2021/12/26 07:52:38;;;;;;;19.30;10.70;;;5.00;57.00;;;;;;5000965;28;20040;-55
2021/12/26 07:55:05;;;;;;;18.40;10.95;;;5.00;57.00;;;;;;4998958;28;20413;-57
2021/12/26 07:57:32;;;;;;;16.92;10.77;;;5.00;57.10;;;;;;5000391;28;20030;-53
2021/12/26 07:59:58;;;;;;;17.92;10.70;;;5.00;57.00;;;;;;5001963;28;20504;-54
2021/12/26 08:02:24;;;;;;;17.10;11.13;;;5.00;57.10;;;;;;4999650;28;20434;-54
2021/12/26 08:04:51;;;;;;;17.38;11.05;;;5.00;57.10;;;;;;4999605;28;20049;-55
2021/12/26 08:07:17;;;;;;;19.65;11.02;;;5.10;57.10;;;;;;4998892;28;20033;-56
2021/12/26 08:09:43;;;;;;;19.30;11.60;;;5.10;57.10;;;;;;4999411;28;20054;-55
2021/12/26 08:12:10;;;;;;;18.40;11.27;;;5.10;57.10;;;;;;4999600;28;20022;-55
2021/12/26 08:14:36;;;;;;;17.13;10.00;;;5.10;57.00;;;;;;4997044;28;20025;-56
2021/12/26 08:17:03;;;;;;;17.40;10.40;;;5.10;57.00;;;;;;4995762;28;20026;-57
2021/12/26 08:19:29;;;;;;;16.85;11.20;;;5.10;57.00;;;;;;4996289;28;20495;-56
2021/12/26 08:21:56;;;;;;;18.27;11.48;;;5.10;56.90;;;;;;5001476;28;20624;-55
2021/12/26 08:24:24;;;;;;;15.20;9.93;;;5.10;56.90;;;;;;5000992;28;20022;-55
2021/12/26 08:26:52;;;;;;;15.70;10.77;;;5.20;57.00;;;;;;4999015;28;20057;-58
2021/12/26 08:29:23;;;;;;;18.10;10.95;;;5.10;57.00;;;;;;4997532;28;20038;-58
2021/12/26 08:31:56;;;;;;;18.35;11.48;;;5.20;57.10;;;;;;4981438;28;20041;-54
2021/12/26 08:34:23;;;;;;;17.35;11.10;;;5.20;57.10;;;;;;4997982;28;20541;-55
2021/12/26 08:36:58;;;;;;;17.27;11.02;;;5.20;57.10;;;;;;4999451;28;20030;-55
2021/12/26 08:39:26;;;;;;;74.00;32.72;;;5.20;57.10;;;;;;4994520;28;20042;-56
2021/12/26 08:41:52;;;;;;;23.58;14.20;;;5.20;57.10;;;;;;4984239;28;20030;-57
2021/12/26 08:44:19;;;;;;;21.85;12.23;;;5.20;57.10;;;;;;4993615;28;20044;-53
2021/12/26 08:46:46;;;;;;;17.80;12.15;;;5.20;57.10;;;;;;4987200;28;20052;-57
2021/12/26 08:49:14;;;;;;;16.85;11.48;;;5.20;57.10;;;;;;4998957;28;20517;-53
2021/12/26 08:51:40;;;;;;;19.75;11.40;;;5.30;57.10;;;;;;4998710;28;20038;-55
2021/12/26 08:54:06;;;;;;;16.83;11.27;;;5.30;57.10;;;;;;4998776;28;20037;-56
2021/12/26 08:56:32;;;;;;;16.70;11.10;;;5.30;57.60;;;;;;4999300;28;20055;-54
2021/12/26 08:58:59;;;;;;;19.27;10.88;;;5.30;57.30;;;;;;4995841;28;20049;-56
2021/12/26 09:01:25;;;;;;;17.35;10.73;;;5.30;57.30;;;;;;4997026;28;20461;-54
2021/12/26 09:03:51;;;;;;;31.30;15.88;;;5.30;57.50;;;;;;5000481;28;20478;-55
2021/12/26 09:06:17;;;;;;;24.10;13.27;;;5.30;57.60;;;;;;4998601;28;20046;-56
2021/12/26 09:08:43;;;;;;;28.23;13.73;;;5.30;57.70;;;;;;4999827;28;20034;-56
2021/12/26 09:11:10;;;;;;;46.42;19.15;;;5.30;57.70;;;;;;4995044;28;20033;-56
2021/12/26 09:13:36;;;;;;;21.00;12.13;;;5.40;57.80;;;;;;4998552;28;20030;-56
2021/12/26 09:16:03;;;;;;;19.13;11.48;;;5.40;57.90;;;;;;4998660;28;20042;-54
2021/12/26 09:18:29;;;;;;;20.08;12.30;;;5.40;57.90;;;;;;4999433;28;20034;-54
2021/12/26 09:20:55;;;;;;;21.02;11.70;;;5.40;57.90;;;;;;4999278;28;20034;-55
2021/12/26 09:23:21;;;;;;;18.02;11.40;;;5.40;58.00;;;;;;5000139;28;20034;-57
2021/12/26 09:25:48;;;;;;;19.73;11.98;;;5.40;58.00;;;;;;5000629;28;20030;-54
2021/12/26 09:28:14;;;;;;;19.05;12.15;;;5.40;58.00;;;;;;4996607;28;20898;-56
2021/12/26 09:30:41;;;;;;;20.33;12.23;;;5.40;58.00;;;;;;5000019;28;20029;-56
2021/12/26 09:33:07;;;;;;;18.45;11.57;;;5.40;58.10;;;;;;4999629;28;20040;-55
2021/12/26 09:35:33;;;;;;;20.10;12.63;;;5.40;58.00;;;;;;4994033;28;20037;-57
2021/12/26 09:38:00;;;;;;;20.98;12.95;;;5.40;58.10;;;;;;4988022;28;20045;-56
2021/12/26 09:40:27;;;;;;;18.85;11.85;;;5.50;58.10;;;;;;4989885;28;20045;-54
2021/12/26 09:42:53;;;;;;;16.85;11.48;;;5.50;58.10;;;;;;4989181;28;20034;-55
2021/12/26 09:45:20;;;;;;;18.88;12.45;;;5.50;58.10;;;;;;4988897;28;20033;-56
2021/12/26 09:47:50;;;;;;;21.67;12.07;;;5.50;58.10;;;;;;4989277;28;20422;-55
2021/12/26 09:50:19;;;;;;;18.92;11.98;;;5.50;58.20;;;;;;4990983;28;20528;-56
2021/12/26 09:52:47;;;;;;;18.55;11.70;;;5.50;58.10;;;;;;4991386;28;20030;-55
2021/12/26 09:55:15;;;;;;;20.67;12.85;;;5.50;58.20;;;;;;4998767;28;20053;-55
2021/12/26 09:57:42;;;;;;;21.20;12.98;;;5.50;58.20;;;;;;4997895;28;20029;-53
2021/12/26 10:00:19;;;;;;;17.77;11.45;;;5.60;58.20;;;;;;4977532;28;20042;-54
2021/12/26 10:02:45;;;;;;;19.17;11.40;;;5.60;58.20;;;;;;5000737;28;20038;-55
2021/12/26 10:05:11;;;;;;;19.55;12.25;;;5.60;58.20;;;;;;4991967;28;20033;-55
2021/12/26 10:07:38;;;;;;;20.33;12.77;;;5.60;58.10;;;;;;4986577;28;21240;-57
2021/12/26 10:10:07;;;;;;;20.00;12.43;;;5.60;58.10;;;;;;5003238;28;20030;-55
2021/12/26 10:12:40;;;;;;;20.30;13.02;;;5.60;58.10;;;;;;4998165;28;20022;-57
2021/12/26 10:15:07;;;;;;;18.63;12.25;;;5.70;58.20;;;;;;4992663;28;20030;-57
2021/12/26 10:17:33;;;;;;;19.08;11.82;;;5.70;58.20;;;;;;5000368;28;20030;-56
2021/12/26 10:20:09;;;;;;;19.38;12.70;;;5.70;58.20;;;;;;4993992;28;20390;-54
2021/12/26 10:22:36;;;;;;;20.58;12.73;;;5.70;58.20;;;;;;4992743;28;20417;-57
2021/12/26 10:25:11;;;;;;;19.50;12.40;;;5.70;58.10;;;;;;4998312;28;20519;-53
2021/12/26 10:27:38;;;;;;;21.08;12.25;;;5.70;58.10;;;;;;4983129;28;20045;-54
2021/12/26 10:30:06;;;;;;;22.05;13.13;;;5.80;58.10;;;;;;4992260;28;20021;-57
2021/12/26 10:32:37;;;;;;;18.73;12.52;;;5.80;58.00;;;;;;5001222;28;20018;-55
2021/12/26 10:35:10;;;;;;;19.08;11.82;;;5.80;58.00;;;;;;4998521;28;20832;-55
2021/12/26 10:37:42;;;;;;;21.35;12.70;;;5.80;57.90;;;;;;4997194;28;20211;-56
2021/12/26 10:40:26;;;;;;;19.65;12.20;;;5.90;58.00;;;;;;4982866;28;20030;-56
2021/12/26 10:42:57;;;;;;;17.42;11.30;;;5.90;57.90;;;;;;5003189;28;20025;-54
2021/12/26 10:45:32;;;;;;;18.15;12.35;;;5.90;57.90;;;;;;5002786;28;20026;-54
2021/12/26 10:48:02;;;;;;;20.52;12.38;;;5.90;57.90;;;;;;5002005;28;20052;-55
2021/12/26 10:50:31;;;;;;;19.38;12.25;;;5.90;57.90;;;;;;5001831;28;20033;-55
2021/12/26 10:52:59;;;;;;;21.95;12.07;;;6.00;58.00;;;;;;5002679;28;20037;-54
2021/12/26 10:55:40;;;;;;;20.55;12.25;;;6.00;58.00;;;;;;4991683;28;20034;-53
2021/12/26 10:58:15;;;;;;;21.23;11.93;;;6.00;57.80;;;;;;4995578;28;20486;-55
2021/12/26 11:00:47;;;;;;;20.02;12.60;;;6.00;57.80;;;;;;5002882;28;20108;-53
2021/12/26 11:03:22;;;;;;;18.45;11.88;;;6.10;57.80;;;;;;5000920;28;20353;-55
2021/12/26 11:05:52;;;;;;;19.40;12.20;;;6.10;57.80;;;;;;5002077;28;20482;-55
2021/12/26 11:08:26;;;;;;;19.85;12.88;;;6.10;57.80;;;;;;4997751;28;20028;-57
2021/12/26 11:10:54;;;;;;;20.50;12.38;;;6.10;57.80;;;;;;4999462;28;20018;-54
2021/12/26 11:13:29;;;;;;;21.67;12.55;;;6.10;57.80;;;;;;4999372;28;20497;-55
2021/12/26 11:15:58;;;;;;;20.38;12.73;;;6.20;57.80;;;;;;4998779;28;20026;-57
2021/12/26 11:18:25;;;;;;;19.02;12.23;;;6.20;57.80;;;;;;5000857;28;20060;-55
2021/12/26 11:20:57;;;;;;;18.50;12.00;;;6.20;57.80;;;;;;4994527;28;20042;-55
2021/12/26 11:23:32;;;;;;;20.85;13.52;;;6.20;57.70;;;;;;5002870;28;20033;-54
2021/12/26 11:26:04;;;;;;;20.40;12.82;;;6.20;57.70;;;;;;5001418;28;20030;-57
2021/12/26 11:28:35;;;;;;;21.80;12.77;;;6.20;57.70;;;;;;5001373;28;20029;-54
2021/12/26 11:31:10;;;;;;;19.15;12.00;;;6.20;57.60;;;;;;5002537;28;20045;-57
2021/12/26 11:33:38;;;;;;;20.65;12.77;;;6.30;57.70;;;;;;4999018;28;20452;-56
2021/12/26 11:36:09;;;;;;;20.33;12.85;;;6.30;57.70;;;;;;4995375;28;20333;-54
2021/12/26 11:38:37;;;;;;;19.98;12.43;;;6.30;57.70;;;;;;4999711;28;20029;-52
2021/12/26 11:41:42;;;;;;;18.77;11.98;;;6.40;57.70;;;;;;4971248;28;20042;-55
2021/12/26 11:44:40;;;;;;;19.45;12.40;;;6.40;57.70;;;;;;4988121;28;20049;-57
2021/12/26 11:47:20;;;;;;;20.52;12.43;;;6.40;57.50;;;;;;4986631;28;20046;-55
2021/12/26 11:50:08;;;;;;;20.67;12.43;;;6.40;57.50;;;;;;4989749;28;20442;-56
2021/12/26 11:53:22;;;;;;;23.92;13.20;;;6.40;57.50;;;;;;4990341;28;20117;-55
2021/12/26 11:56:14;;;;;;;28.60;14.70;;;6.50;57.60;;;;;;4969676;28;20034;-57
2021/12/26 11:59:09;;;;;;;21.92;13.13;;;6.50;57.40;;;;;;4959708;28;20057;-57
2021/12/26 12:01:40;;;;;;;;;;;6.50;57.40;;;;;;4987529;28;20108;-55
2021/12/26 12:04:17;;;;;;;19.98;12.77;;;6.60;57.50;;;;;;5000425;28;19916;-55
2021/12/26 12:06:46;;;;;;;22.77;12.95;;;6.60;57.20;;;;;;4982187;28;20069;-57
2021/12/26 12:09:35;;;;;;;21.25;13.15;;;6.60;57.20;;;;;;4999904;28;20049;-55
2021/12/26 12:12:09;;;;;;;22.35;13.43;;;6.60;57.20;;;;;;4999181;28;20026;-56
2021/12/26 12:14:57;;;;;;;28.48;13.00;;;6.60;57.20;;;;;;4998210;28;20026;-55
2021/12/26 12:17:29;;;;;;;20.50;12.77;;;6.60;57.30;;;;;;4994513;28;20025;-57
2021/12/26 12:20:13;;;;;;;19.02;12.07;;;6.60;57.20;;;;;;4979677;28;20045;-55
2021/12/26 12:23:02;;;;;;;17.77;11.38;;;6.60;57.20;;;;;;5001733;28;20026;-55
2021/12/26 12:25:38;;;;;;;20.83;12.32;;;6.60;57.30;;;;;;4999772;28;20045;-54
2021/12/26 12:28:22;;;;;;;19.80;12.45;;;6.60;57.20;;;;;;4997107;28;20033;-55
2021/12/26 12:30:57;;;;;;;18.30;11.52;;;6.70;57.20;;;;;;4999460;28;20402;-55
2021/12/26 12:33:32;;;;;;;19.52;11.90;;;6.70;57.20;;;;;;4997185;28;20742;-57
2021/12/26 12:36:08;;;;;;;20.60;12.63;;;6.70;57.20;;;;;;5000655;28;20972;-55
2021/12/26 12:38:39;;;;;;;21.45;12.05;;;6.70;57.20;;;;;;5000185;28;20030;-55
2021/12/26 12:41:35;;;;;;;21.55;12.93;;;6.70;57.20;;;;;;5000911;28;20491;-57
2021/12/26 12:44:06;;;;;;;19.90;12.35;;;6.70;57.20;;;;;;4999306;28;20022;-56
2021/12/26 12:46:55;;;;;;;20.98;12.95;;;6.70;57.30;;;;;;4997335;28;20045;-56
2021/12/26 12:49:47;;;;;;;25.48;13.30;;;6.80;57.30;;;;;;4997335;28;20022;-55
2021/12/26 12:52:49;;;;;;;21.50;12.68;;;6.80;57.30;;;;;;4997074;28;20022;-56
2021/12/26 12:55:22;;;;;;;21.15;12.85;;;6.80;57.20;;;;;;4998769;28;20049;-57
2021/12/26 12:57:50;;;;;;;17.90;11.77;;;6.80;57.20;;;;;;4981154;28;20038;-55
2021/12/26 13:00:25;;;;;;;21.38;13.13;;;6.90;57.20;;;;;;4998873;28;20025;-53